createdAt,value
2018-11-13T00:02:12.366Z,82.30
2018-11-13T00:04:39.348Z,82.50
2018-11-13T00:07:06.292Z,82.90
2018-11-13T00:09:33.246Z,83.00
2018-11-13T00:12:00.182Z,83.40
2018-11-13T00:14:27.137Z,83.90
2018-11-13T00:16:54.095Z,83.60
2018-11-13T00:19:21.030Z,84.30
2018-11-13T00:21:47.975Z,84.00
2018-11-13T00:24:14.969Z,83.70
2018-11-13T00:26:41.924Z,84.00
2018-11-13T00:29:08.895Z,84.20
2018-11-13T00:31:35.963Z,84.40
2018-11-13T00:34:02.924Z,84.60
2018-11-13T00:36:30.727Z,84.10
2018-11-13T00:38:57.692Z,84.40
2018-11-13T00:41:24.648Z,84.50
2018-11-13T00:43:51.608Z,84.50
2018-11-13T00:46:18.604Z,84.60
2018-11-13T00:48:45.580Z,84.90
2018-11-13T00:51:12.566Z,85.10
2018-11-13T00:53:39.518Z,84.70
2018-11-13T00:56:06.478Z,84.00
2018-11-13T00:58:33.412Z,84.80
2018-11-13T01:01:00.366Z,85.60
2018-11-13T01:03:27.309Z,85.30
2018-11-13T01:05:54.639Z,86.20
2018-11-13T01:08:21.215Z,85.30
2018-11-13T01:10:48.156Z,85.10
2018-11-13T01:13:15.101Z,85.20
2018-11-13T01:15:42.065Z,85.50
2018-11-13T01:18:09.050Z,85.70
2018-11-13T01:20:36.002Z,85.50
2018-11-13T01:23:02.988Z,85.00
2018-11-13T01:25:29.942Z,85.60
2018-11-13T01:27:56.923Z,86.40
2018-11-13T01:30:23.894Z,86.80
2018-11-13T01:32:51.011Z,88.90
2018-11-13T01:35:18.569Z,87.40
2018-11-13T01:37:45.761Z,88.60
2018-11-13T01:40:15.023Z,90.40
2018-11-13T01:42:42.493Z,90.60
2018-11-13T01:45:12.628Z,90.70
2018-11-13T01:47:39.634Z,91.10
2018-11-13T01:50:07.313Z,91.00
2018-11-13T01:52:34.779Z,91.40
2018-11-13T01:55:01.542Z,92.20
2018-11-13T01:57:28.504Z,91.80
2018-11-13T01:59:55.479Z,91.10
2018-11-13T02:02:22.475Z,90.90
2018-11-13T02:04:49.795Z,91.10
2018-11-13T02:07:16.769Z,92.20
2018-11-13T02:09:43.821Z,91.80
2018-11-13T02:12:10.886Z,92.10
2018-11-13T02:14:37.914Z,92.30
2018-11-13T02:17:05.417Z,92.60
2018-11-13T02:19:32.385Z,92.80
2018-11-13T02:21:59.369Z,92.50
2018-11-13T02:24:26.338Z,92.70
2018-11-13T02:26:53.310Z,92.70
2018-11-13T02:29:20.299Z,92.50
2018-11-13T02:31:47.266Z,92.50
2018-11-13T02:34:14.358Z,92.00
2018-11-13T02:36:41.340Z,92.20
2018-11-13T02:39:09.338Z,91.80
2018-11-13T02:41:36.297Z,91.60
2018-11-13T02:44:03.423Z,91.70
2018-11-13T02:46:30.424Z,91.80
2018-11-13T02:48:57.374Z,92.10
2018-11-13T02:51:24.360Z,92.00
2018-11-13T02:53:51.355Z,92.20
2018-11-13T02:56:18.323Z,92.40
2018-11-13T02:58:45.306Z,92.50
2018-11-13T03:01:12.276Z,92.70
2018-11-13T03:03:39.272Z,93.20
2018-11-13T03:06:06.266Z,93.20
2018-11-13T03:08:33.228Z,93.50
2018-11-13T03:11:00.214Z,93.40
2018-11-13T03:13:27.249Z,93.50
2018-11-13T03:15:54.169Z,93.30
2018-11-13T03:18:21.122Z,93.30
2018-11-13T03:20:48.115Z,93.30
2018-11-13T03:23:15.073Z,93.30
2018-11-13T03:25:42.037Z,93.30
2018-11-13T03:28:09.041Z,93.40
2018-11-13T03:30:36.029Z,93.40
2018-11-13T03:33:03.354Z,93.60
2018-11-13T03:35:30.459Z,93.60
2018-11-13T03:37:57.424Z,93.60
2018-11-13T03:40:24.396Z,93.80
2018-11-13T03:42:51.470Z,93.80
2018-11-13T03:45:18.775Z,93.70
2018-11-13T03:47:45.710Z,93.70
2018-11-13T03:50:14.627Z,93.70
2018-11-13T03:52:42.042Z,93.60
2018-11-13T03:55:09.936Z,93.50
2018-11-13T03:57:37.303Z,93.40
2018-11-13T04:00:05.975Z,93.30
2018-11-13T04:02:32.903Z,93.50
2018-11-13T04:04:59.910Z,93.50
2018-11-13T04:07:26.856Z,93.40
2018-11-13T04:09:53.829Z,93.60
2018-11-13T04:12:20.790Z,93.10
2018-11-13T04:14:47.763Z,93.20
2018-11-13T04:17:14.711Z,93.30
2018-11-13T04:19:41.662Z,93.30
2018-11-13T04:22:08.647Z,93.70
2018-11-13T04:24:35.587Z,93.30
2018-11-13T04:27:02.580Z,93.20
2018-11-13T04:29:29.857Z,93.20
2018-11-13T04:31:56.931Z,93.30
2018-11-13T04:34:23.893Z,93.50
2018-11-13T04:36:51.094Z,93.60
2018-11-13T04:39:18.232Z,93.60
2018-11-13T04:41:45.213Z,93.60
2018-11-13T04:44:12.174Z,93.80
2018-11-13T04:46:39.250Z,93.80
2018-11-13T04:49:06.218Z,94.10
2018-11-13T04:51:33.189Z,93.80
2018-11-13T04:54:00.114Z,93.50
2018-11-13T04:56:27.067Z,93.60
2018-11-13T04:58:54.014Z,93.50
2018-11-13T05:01:20.971Z,93.70
2018-11-13T05:03:47.918Z,93.80
2018-11-13T05:06:14.858Z,93.90
2018-11-13T05:08:41.795Z,93.90
2018-11-13T05:11:08.766Z,94.10
2018-11-13T05:13:35.726Z,94.00
2018-11-13T05:16:02.723Z,94.10
2018-11-13T05:18:29.786Z,94.50
2018-11-13T05:20:56.727Z,94.20
2018-11-13T05:23:23.680Z,94.30
2018-11-13T05:25:50.678Z,94.40
2018-11-13T05:28:17.656Z,94.50
2018-11-13T05:30:44.617Z,94.50
2018-11-13T05:33:11.579Z,94.50
2018-11-13T05:35:38.537Z,94.30
2018-11-13T05:38:05.612Z,94.30
2018-11-13T05:40:32.587Z,94.20
2018-11-13T05:42:59.538Z,94.00
2018-11-13T05:45:26.493Z,93.70
2018-11-13T05:47:53.489Z,93.50
2018-11-13T05:50:20.545Z,93.60
2018-11-13T05:52:48.937Z,93.50
2018-11-13T05:55:16.217Z,93.40
2018-11-13T05:57:43.159Z,93.90
2018-11-13T06:00:13.475Z,93.50
2018-11-13T06:02:40.467Z,93.20
2018-11-13T06:05:07.517Z,93.50
2018-11-13T06:07:34.462Z,93.50
2018-11-13T06:10:01.527Z,93.50
2018-11-13T06:12:28.478Z,93.50
2018-11-13T06:14:55.435Z,93.50
2018-11-13T06:17:22.451Z,93.50
2018-11-13T06:19:49.398Z,93.30
2018-11-13T06:22:16.375Z,93.20
2018-11-13T06:24:43.356Z,93.00
2018-11-13T06:27:10.710Z,93.10
2018-11-13T06:29:37.843Z,93.10
2018-11-13T06:32:04.726Z,93.20
2018-11-13T06:34:31.656Z,93.60
2018-11-13T06:36:58.645Z,93.30
2018-11-13T06:39:26.382Z,93.00
2018-11-13T06:41:53.320Z,93.00
2018-11-13T06:44:20.484Z,92.80
2018-11-13T06:46:47.495Z,92.90
2018-11-13T06:49:14.545Z,93.10
2018-11-13T06:51:41.404Z,93.10
2018-11-13T06:54:20.145Z,93.40
2018-11-13T06:56:47.113Z,93.30
2018-11-13T06:59:14.088Z,93.20
2018-11-13T07:01:41.072Z,93.10
2018-11-13T07:04:08.054Z,93.20
2018-11-13T07:06:34.986Z,93.30
2018-11-13T07:09:01.946Z,93.30
2018-11-13T07:11:28.897Z,93.30
2018-11-13T07:13:55.860Z,93.10
2018-11-13T07:16:22.819Z,93.30
2018-11-13T07:18:49.789Z,93.20
2018-11-13T07:21:16.859Z,93.30
2018-11-13T07:23:43.851Z,93.60
2018-11-13T07:26:10.802Z,93.90
2018-11-13T07:28:37.751Z,94.00
2018-11-13T07:31:04.742Z,94.10
2018-11-13T07:33:31.730Z,94.20
2018-11-13T07:35:58.658Z,94.40
2018-11-13T07:38:25.634Z,94.40
2018-11-13T07:40:52.798Z,94.60
2018-11-13T07:43:19.742Z,94.60
2018-11-13T07:45:46.693Z,94.80
2018-11-13T07:48:13.664Z,94.70
2018-11-13T07:50:40.643Z,94.70
2018-11-13T07:53:07.615Z,94.80
2018-11-13T07:55:34.567Z,94.90
2018-11-13T07:58:01.512Z,94.70
2018-11-13T08:00:28.508Z,94.80
2018-11-13T08:03:10.879Z,94.90
2018-11-13T08:05:37.871Z,94.60
2018-11-13T08:08:05.050Z,94.30
2018-11-13T08:10:31.991Z,94.10
2018-11-13T08:12:59.044Z,94.20
2018-11-13T08:15:25.947Z,94.50
2018-11-13T08:17:52.908Z,94.10
2018-11-13T08:20:19.875Z,94.10
2018-11-13T08:22:46.849Z,94.20
2018-11-13T08:25:13.872Z,94.00
2018-11-13T08:27:41.402Z,94.00
2018-11-13T08:30:10.655Z,94.50
2018-11-13T08:32:37.626Z,94.50
2018-11-13T08:35:05.220Z,94.40
2018-11-13T08:37:32.082Z,94.30
2018-11-13T08:39:59.034Z,94.50
2018-11-13T08:42:26.489Z,94.30
2018-11-13T08:44:53.423Z,94.50
2018-11-13T08:47:20.427Z,94.30
2018-11-13T08:49:47.398Z,94.40
2018-11-13T08:52:14.374Z,94.30
2018-11-13T08:54:41.323Z,94.50
2018-11-13T08:57:08.274Z,94.60
2018-11-13T08:59:35.264Z,94.60
2018-11-13T09:02:02.200Z,94.80
2018-11-13T09:04:29.158Z,94.70
2018-11-13T09:06:56.137Z,95.30
2018-11-13T09:09:23.077Z,95.00
2018-11-13T09:11:50.120Z,94.70
2018-11-13T09:14:17.024Z,94.90
2018-11-13T09:16:44.001Z,94.70
2018-11-13T09:19:11.076Z,94.50
2018-11-13T09:21:37.998Z,94.60
2018-11-13T09:24:04.936Z,94.30
2018-11-13T09:26:32.194Z,94.40
2018-11-13T09:28:59.159Z,94.10
2018-11-13T09:31:26.214Z,94.40
2018-11-13T09:33:53.100Z,93.90
2018-11-13T09:36:20.064Z,93.70
2018-11-13T09:38:47.023Z,93.80
2018-11-13T09:41:13.963Z,93.50
2018-11-13T09:43:41.152Z,93.20
2018-11-13T09:46:08.308Z,93.40
2018-11-13T09:48:35.315Z,93.00
2018-11-13T09:51:02.316Z,93.00
2018-11-13T09:53:29.521Z,93.20
2018-11-13T09:55:56.506Z,93.00
2018-11-13T09:58:23.651Z,92.70
2018-11-13T10:00:50.911Z,93.00
2018-11-13T10:03:18.443Z,93.20
2018-11-13T10:05:45.020Z,93.00
2018-11-13T10:08:11.858Z,92.70
2018-11-13T10:10:38.873Z,93.00
2018-11-13T10:13:05.816Z,92.80
2018-11-13T10:15:32.771Z,92.20
2018-11-13T10:18:00.321Z,92.30
2018-11-13T10:20:27.154Z,92.40
2018-11-13T10:22:55.312Z,92.10
2018-11-13T10:25:22.286Z,92.40
2018-11-13T10:27:49.295Z,92.50
2018-11-13T10:30:17.644Z,91.70
2018-11-13T10:32:45.217Z,92.00
2018-11-13T10:35:12.962Z,91.90
2018-11-13T10:37:40.440Z,92.10
2018-11-13T10:40:09.568Z,92.00
2018-11-13T10:42:36.555Z,92.20
2018-11-13T10:45:05.663Z,92.00
2018-11-13T10:47:32.619Z,91.70
2018-11-13T10:49:59.591Z,92.00
2018-11-13T10:52:26.590Z,92.50
2018-11-13T10:54:53.573Z,92.70
2018-11-13T10:57:20.545Z,92.00
2018-11-13T10:59:47.510Z,91.80
2018-11-13T11:02:20.332Z,92.20
2018-11-13T11:04:47.914Z,91.50
2018-11-13T11:07:14.924Z,91.10
2018-11-13T11:09:41.880Z,90.80
2018-11-13T11:12:08.944Z,91.10
2018-11-13T11:14:35.911Z,92.00
2018-11-13T11:17:02.960Z,91.70
2018-11-13T11:19:30.875Z,91.60
2018-11-13T11:21:57.735Z,90.90
2018-11-13T11:24:24.710Z,91.60
2018-11-13T11:26:51.682Z,91.90
2018-11-13T11:29:18.652Z,92.10
2018-11-13T11:31:45.619Z,91.90
2018-11-13T11:34:12.582Z,92.20
2018-11-13T11:36:39.556Z,92.70
2018-11-13T11:39:08.098Z,92.60
2018-11-13T11:41:35.085Z,91.90
2018-11-13T11:44:02.171Z,92.50
2018-11-13T11:46:29.512Z,92.20
2018-11-13T11:48:56.477Z,92.30
2018-11-13T11:51:23.448Z,91.30
2018-11-13T11:53:50.455Z,91.00
2018-11-13T11:56:17.391Z,90.60
2018-11-13T11:58:44.326Z,91.60
2018-11-13T12:01:11.303Z,90.60
2018-11-13T12:03:38.260Z,91.30
2018-11-13T12:06:05.214Z,90.50
2018-11-13T12:08:32.265Z,91.50
2018-11-13T12:10:59.300Z,90.50
2018-11-13T12:13:26.287Z,91.40
2018-11-13T12:15:53.292Z,91.10
2018-11-13T12:18:20.315Z,90.30
2018-11-13T12:20:47.334Z,90.70
2018-11-13T12:23:14.357Z,91.10
2018-11-13T12:25:41.431Z,90.90
2018-11-13T12:28:08.365Z,90.60
2018-11-13T12:30:35.397Z,90.50
2018-11-13T12:33:02.375Z,91.00
2018-11-13T12:35:29.356Z,91.10
2018-11-13T12:37:56.374Z,90.70
2018-11-13T12:40:24.181Z,91.00
2018-11-13T12:42:51.215Z,91.00
2018-11-13T12:45:18.912Z,90.70
2018-11-13T12:47:46.215Z,91.10
2018-11-13T12:50:14.443Z,90.60
2018-11-13T12:52:41.514Z,90.30
2018-11-13T12:55:10.992Z,90.20
2018-11-13T12:57:37.955Z,90.10
2018-11-13T13:00:09.874Z,90.00
2018-11-13T13:02:36.867Z,90.20
2018-11-13T13:05:04.931Z,87.90
2018-11-13T13:07:31.899Z,88.30
2018-11-13T13:09:58.853Z,87.40
2018-11-13T13:12:25.801Z,87.40
2018-11-13T13:14:52.844Z,87.60
2018-11-13T13:17:19.732Z,87.50
2018-11-13T13:19:46.694Z,85.60
2018-11-13T13:22:13.669Z,85.80
2018-11-13T13:24:40.627Z,87.00
2018-11-13T13:27:07.716Z,85.60
2018-11-13T13:29:34.687Z,85.10
2018-11-13T13:32:01.657Z,84.30
2018-11-13T13:34:28.604Z,84.00
2018-11-13T13:36:55.567Z,84.90
2018-11-13T13:39:22.597Z,84.50
2018-11-13T13:41:49.559Z,85.20
2018-11-13T13:44:16.549Z,84.50
2018-11-13T13:46:43.578Z,85.00
2018-11-13T13:49:11.362Z,85.70
2018-11-13T13:51:38.327Z,86.10
2018-11-13T13:54:05.475Z,85.30
2018-11-13T13:56:32.327Z,84.00
2018-11-13T13:58:59.293Z,85.20
2018-11-13T14:01:26.269Z,85.40
2018-11-13T14:03:53.207Z,85.50
2018-11-13T14:06:20.154Z,82.50
2018-11-13T14:08:47.126Z,81.70
2018-11-13T14:11:14.074Z,81.70
2018-11-13T14:13:41.054Z,83.10
2018-11-13T14:16:08.442Z,81.20
2018-11-13T14:18:35.398Z,82.10
2018-11-13T14:21:02.446Z,82.60
2018-11-13T14:23:29.333Z,79.80
2018-11-13T14:25:56.287Z,80.90
2018-11-13T14:28:23.256Z,82.50
2018-11-13T14:30:50.205Z,82.50
2018-11-13T14:33:17.154Z,82.50
2018-11-13T14:35:44.242Z,83.50
2018-11-13T14:38:11.099Z,83.80
2018-11-13T14:40:40.117Z,84.90
2018-11-13T14:43:13.243Z,84.70
2018-11-13T14:45:40.270Z,85.40
2018-11-13T14:48:07.892Z,85.40
2018-11-13T14:50:35.449Z,84.70
2018-11-13T14:53:02.524Z,85.50
2018-11-13T14:55:31.885Z,85.70
2018-11-13T14:57:59.773Z,85.60
2018-11-13T15:00:28.043Z,85.00
2018-11-13T15:02:55.707Z,83.50
2018-11-13T15:05:23.381Z,84.00
2018-11-13T15:07:52.817Z,83.50
2018-11-13T15:10:31.573Z,83.10
2018-11-13T15:12:58.550Z,82.60
2018-11-13T15:15:25.627Z,83.10
2018-11-13T15:17:52.508Z,83.50
2018-11-13T15:20:19.495Z,83.30
2018-11-13T15:22:46.445Z,83.70
2018-11-13T15:25:14.537Z,83.30
2018-11-13T15:27:42.378Z,83.60
2018-11-13T15:30:14.757Z,83.50
2018-11-13T15:32:42.438Z,83.20
2018-11-13T15:35:11.004Z,84.40
2018-11-13T15:37:37.949Z,84.90
2018-11-13T15:40:08.534Z,85.60
2018-11-13T15:42:35.843Z,85.00
2018-11-13T15:45:02.826Z,84.90
2018-11-13T15:47:29.866Z,83.30
2018-11-13T15:49:56.711Z,84.60
2018-11-13T15:52:24.219Z,83.80
2018-11-13T15:54:51.083Z,82.50
2018-11-13T15:57:18.030Z,82.70
2018-11-13T15:59:44.975Z,83.60
2018-11-13T16:02:11.978Z,82.90
2018-11-13T16:04:38.969Z,83.10
2018-11-13T16:07:05.903Z,82.50
2018-11-13T16:09:32.887Z,81.50
2018-11-13T16:11:59.867Z,82.70
2018-11-13T16:14:26.879Z,83.30
2018-11-13T16:16:53.838Z,81.90
2018-11-13T16:19:20.781Z,81.60
2018-11-13T16:21:47.965Z,82.50
2018-11-13T16:24:14.862Z,83.20
2018-11-13T16:26:41.804Z,83.70
2018-11-13T16:29:08.754Z,83.90
2018-11-13T16:31:35.704Z,84.30
2018-11-13T16:34:02.649Z,84.90
2018-11-13T16:36:29.697Z,85.60
2018-11-13T16:38:56.579Z,85.10
2018-11-13T16:41:23.534Z,84.20
2018-11-13T16:43:50.480Z,86.10
2018-11-13T16:46:17.463Z,85.90
2018-11-13T16:48:44.434Z,86.10
2018-11-13T16:51:11.395Z,86.40
2018-11-13T16:53:45.014Z,86.70
2018-11-13T16:56:11.941Z,87.20
2018-11-13T16:58:38.885Z,87.50
2018-11-13T17:01:05.941Z,87.60
2018-11-13T17:03:32.846Z,87.50
2018-11-13T17:05:59.840Z,88.10
2018-11-13T17:08:26.756Z,87.50
2018-11-13T17:10:53.700Z,87.90
2018-11-13T17:13:20.646Z,88.40
2018-11-13T17:15:47.643Z,88.50
2018-11-13T17:18:14.602Z,88.70
2018-11-13T17:20:41.566Z,88.80
2018-11-13T17:23:08.534Z,88.60
2018-11-13T17:25:36.950Z,88.10
2018-11-13T17:28:04.080Z,87.70
2018-11-13T17:30:32.610Z,87.80
2018-11-13T17:33:00.508Z,88.10
2018-11-13T17:35:28.439Z,87.80
2018-11-13T17:37:56.210Z,88.30
2018-11-13T17:40:24.472Z,88.20
2018-11-13T17:42:52.810Z,88.20
2018-11-13T17:45:22.380Z,88.60
2018-11-13T17:47:49.322Z,88.50
2018-11-13T17:50:20.113Z,89.20
2018-11-13T17:52:47.868Z,89.40
2018-11-13T17:55:16.090Z,89.40
2018-11-13T17:57:43.866Z,89.70
2018-11-13T18:00:32.331Z,90.00
2018-11-13T18:02:59.805Z,90.10
2018-11-13T18:05:27.128Z,90.30
2018-11-13T18:07:55.075Z,90.10
2018-11-13T18:10:22.166Z,90.20
2018-11-13T18:12:49.162Z,90.30
2018-11-13T18:15:17.694Z,90.20
2018-11-13T18:17:45.054Z,90.40
2018-11-13T18:20:14.706Z,90.40
2018-11-13T18:22:42.228Z,90.70
2018-11-13T18:25:09.174Z,90.40
2018-11-13T18:27:37.030Z,90.60
2018-11-13T18:30:06.838Z,90.50
2018-11-13T18:32:33.788Z,90.50
2018-11-13T18:35:00.781Z,90.60
2018-11-13T18:37:27.757Z,90.60
2018-11-13T18:39:54.673Z,90.70
2018-11-13T18:42:21.652Z,90.80
2018-11-13T18:44:48.621Z,90.90
2018-11-13T18:47:15.560Z,90.90
2018-11-13T18:49:42.504Z,90.90
2018-11-13T18:52:09.520Z,91.00
2018-11-13T18:54:36.465Z,91.10
2018-11-13T18:57:04.356Z,91.20
2018-11-13T18:59:31.427Z,91.20
2018-11-13T19:01:58.365Z,91.40
2018-11-13T19:04:25.326Z,91.30
2018-11-13T19:06:52.327Z,91.50
2018-11-13T19:09:19.434Z,91.50
2018-11-13T19:11:46.428Z,91.40
2018-11-13T19:14:13.350Z,91.50
2018-11-13T19:16:40.474Z,91.60
2018-11-13T19:19:07.423Z,91.60
2018-11-13T19:21:34.410Z,91.70
2018-11-13T19:24:01.506Z,91.80
2018-11-13T19:26:28.326Z,91.80
2018-11-13T19:28:55.277Z,91.80
2018-11-13T19:31:22.227Z,91.90
2018-11-13T19:33:49.199Z,91.80
2018-11-13T19:36:16.494Z,91.80
2018-11-13T19:38:43.169Z,91.90
2018-11-13T19:41:10.263Z,92.00
2018-11-13T19:43:37.233Z,91.70
2018-11-13T19:46:04.226Z,91.40
2018-11-13T19:48:31.163Z,91.20
2018-11-13T19:50:58.117Z,91.20
2018-11-13T19:53:25.179Z,91.10
2018-11-13T19:55:52.221Z,91.30
2018-11-13T19:58:19.727Z,91.30
2018-11-13T20:00:46.688Z,91.20
2018-11-13T20:03:13.669Z,91.20
2018-11-13T20:05:40.671Z,91.20
2018-11-13T20:08:08.127Z,91.30
2018-11-13T20:10:35.787Z,91.50
2018-11-13T20:13:04.000Z,91.90
2018-11-13T20:15:32.039Z,91.30
2018-11-13T20:17:58.988Z,91.30
2018-11-13T20:20:27.122Z,91.50
2018-11-13T20:22:54.685Z,91.40
2018-11-13T20:25:22.967Z,91.40
2018-11-13T20:27:50.000Z,90.90
2018-11-13T20:30:21.605Z,91.20
2018-11-13T20:32:48.801Z,91.20
2018-11-13T20:35:15.885Z,91.20
2018-11-13T20:37:44.057Z,91.30
2018-11-13T20:40:12.826Z,91.30
2018-11-13T20:42:40.161Z,91.40
2018-11-13T20:45:07.889Z,91.50
2018-11-13T20:47:35.098Z,91.40
2018-11-13T20:50:02.481Z,91.30
2018-11-13T20:52:29.428Z,91.40
2018-11-13T20:54:56.914Z,91.40
2018-11-13T20:57:24.238Z,91.50
2018-11-13T20:59:51.835Z,91.70
2018-11-13T21:02:18.824Z,91.50
2018-11-13T21:04:45.901Z,92.40
2018-11-13T21:07:12.890Z,92.30
2018-11-13T21:09:39.877Z,92.50
2018-11-13T21:12:06.845Z,92.80
2018-11-13T21:14:33.822Z,92.80
2018-11-13T21:17:00.912Z,92.60
2018-11-13T21:19:27.785Z,92.60
2018-11-13T21:21:54.745Z,92.70
2018-11-13T21:24:21.686Z,92.80
2018-11-13T21:26:48.656Z,92.70
2018-11-13T21:29:15.618Z,92.80
2018-11-13T21:31:42.555Z,93.00
2018-11-13T21:34:09.588Z,93.10
2018-11-13T21:36:36.587Z,93.10
2018-11-13T21:39:07.215Z,93.20
2018-11-13T21:41:34.221Z,93.30
2018-11-13T21:44:01.187Z,93.80
2018-11-13T21:46:28.126Z,94.20
2018-11-13T21:48:55.074Z,94.70
2018-11-13T21:51:22.032Z,94.00
2018-11-13T21:53:48.998Z,93.60
2018-11-13T21:56:16.018Z,93.30
2018-11-13T21:58:43.020Z,93.20
2018-11-13T22:01:10.452Z,93.30
2018-11-13T22:03:37.405Z,93.60
2018-11-13T22:06:04.766Z,93.50
2018-11-13T22:08:31.730Z,93.50
2018-11-13T22:10:58.719Z,94.00
2018-11-13T22:13:25.757Z,94.10
2018-11-13T22:15:52.721Z,94.20
2018-11-13T22:18:19.719Z,94.40
2018-11-13T22:20:46.679Z,94.60
2018-11-13T22:23:13.681Z,94.30
2018-11-13T22:25:40.606Z,94.00
2018-11-13T22:28:07.721Z,94.10
2018-11-13T22:30:34.511Z,94.10
2018-11-13T22:33:01.544Z,94.00
2018-11-13T22:35:28.545Z,93.90
2018-11-13T22:37:55.487Z,93.60
2018-11-13T22:40:23.765Z,93.50
2018-11-13T22:42:50.917Z,93.50
2018-11-13T22:45:19.498Z,93.40
2018-11-13T22:47:46.493Z,93.40
2018-11-13T22:50:16.755Z,92.70
2018-11-13T22:52:44.330Z,92.40
2018-11-13T22:55:12.202Z,92.40
2018-11-13T22:57:39.828Z,92.90
2018-11-13T23:00:14.129Z,93.10
2018-11-13T23:02:41.803Z,93.30
2018-11-13T23:05:09.346Z,93.00
2018-11-13T23:07:36.684Z,93.00
2018-11-13T23:10:05.148Z,92.90
2018-11-13T23:12:32.233Z,92.90
2018-11-13T23:14:59.265Z,92.70
2018-11-13T23:17:26.595Z,92.50
2018-11-13T23:19:53.560Z,92.50
2018-11-13T23:22:20.525Z,92.50
2018-11-13T23:24:47.546Z,92.40
2018-11-13T23:27:14.515Z,92.50
2018-11-13T23:29:41.639Z,92.60
2018-11-13T23:32:08.580Z,92.70
2018-11-13T23:34:35.544Z,92.60
2018-11-13T23:37:02.496Z,92.60
2018-11-13T23:39:29.429Z,92.90
2018-11-13T23:41:56.388Z,93.10
2018-11-13T23:44:23.374Z,93.20
2018-11-13T23:46:50.302Z,93.20
2018-11-13T23:49:17.338Z,93.10
2018-11-13T23:51:44.302Z,93.00
2018-11-13T23:54:11.246Z,92.60
2018-11-13T23:56:38.670Z,92.70
2018-11-13T23:59:05.173Z,93.20
